Terminal Aerodrome Forecast
Issued by NWS Twin Cities, MN

Home | Current Version | Previous Version | Graphics & Text | Print | Product List | Glossary On
Versions: 1 2 3 4 5 6 7 8 9 10 11 12
000
FTUS43 KMPX 191720
TAFSTC
TAF
KSTC 191720Z 1918/2018 17007KT P6SM BKN200
     FM192100 23007KT P6SM BKN200
     FM200000 28006KT P6SM BKN120
     FM200500 30004KT P6SM BKN100
     FM201500 25004KT P6SM SCT100 BKN200=

USA.gov is the U.S. government's official web portal to all federal, state and local government web resources and services.